Airfield :
LOGIN :

Register | Disclaimer

   EN    FR    IT 

 










Legend :    VFR   Marginal VFR   IFR   Intensive IFR   Very Intensive IFR
Visi :
Ceiling :
>= 8 km
>= 3000ft
5 to 8 km
1000 to 3000 ft
1500m to 5 km
500 to 1000 ft
800 to 1500m
200 to 500 ft
< 800m
< 200 ft
Symbols :   Thunderstorms  Fog  Heavy snow  Heavy precipitations  Wind > 20 kt
SIGMETs :     Misc.  Thunderstorms  Icing  Turbulence  Mountain Waves  Volcanic Ashes







- Airport Elevation : 909 ft
- IATA code : KSF


EDVK - Kassel Calden

CURRENT METAR :
  • 171420Z 01007KT 9999 SCT016 M02/M05 Q1036

EXPIRED METARs :
  • 171350Z 34005KT 9000 BKN012 M02/M04 Q1036
  • 171320Z 33003KT 9999 BKN013 M02/M03 Q1035
  • 171312Z 33003KT 9999 BKN010 M02/M03 Q1035 RMK ATIS O
  • 171250Z 31003KT 7000 FEW010 SCT024 BKN042 M02/M03 Q1036
  • 171220Z 33004KT 6000 FEW009 BKN023 M02/M03 Q1036
  • 171150Z 34004KT 5000 BR SCT007 OVC010 M02/M03 Q1036

TAF TAF EDVK
Valid from the 17 at 15:00 until the 18 at 00:00 UTC


171400Z 1715/1724 02004KT 9999 SCT013 BKN020
TEMPO 1715/1724 BKN013
No reported NOTAMs for that airfield.



MET'MAP, your aeronautical weather chart ! - Copyright ORBIFLY December 2007 - Disclaimer

ORBIFLY MET'MAP TEAM :

Programming & Development : Alexandra Zaïnal
Concept & Development : Baudouin d'Aumeries
Co-Development & Prog : Marc-Olivier Méhu
Technical & hardware support : Manuel Goepfert

Contact : metmap@orbifly.com




SOURCES & CREDITS :

   NOAA